Time;durP1;ratioP1;P1;durP2;ratioP2;P2;SDS_P1;SDS_P2;PMS_P1;PMS_P2;Temp;Humidity;BMP_temperature;BMP_pressure;BME280_temperature;BME280_humidity;BME280_pressure;Samples;Min_cycle;Max_cycle;Signal;HPM_P1;HPM_P2
2021/11/11 00:00:15;;;;;;;48.85;34.78;;;9.20;99.90;;;;;;5048799;28;20072;-60
2021/11/11 00:02:42;;;;;;;48.70;34.40;;;9.30;99.90;;;;;;5048049;28;20060;-59
2021/11/11 00:05:09;;;;;;;45.53;32.83;;;9.20;99.90;;;;;;5049029;28;20381;-60
2021/11/11 00:07:36;;;;;;;43.70;32.50;;;9.30;99.90;;;;;;5048522;28;20041;-60
2021/11/11 00:10:04;;;;;;;43.08;32.78;;;9.20;99.90;;;;;;5048775;28;20411;-59
2021/11/11 00:12:34;;;;;;;45.10;33.25;;;9.20;99.90;;;;;;5049460;28;20057;-59
2021/11/11 00:15:06;;;;;;;42.13;32.08;;;9.20;99.90;;;;;;5053968;28;20059;-60
2021/11/11 00:17:32;;;;;;;41.08;31.50;;;9.20;99.90;;;;;;5053624;28;20077;-59
2021/11/11 00:19:58;;;;;;;41.20;31.45;;;9.20;99.90;;;;;;5035744;28;20049;-59
2021/11/11 00:22:25;;;;;;;46.80;32.50;;;9.20;99.90;;;;;;5050930;28;20048;-59
2021/11/11 00:24:51;;;;;;;43.10;32.10;;;9.20;99.90;;;;;;5052862;28;20080;-59
2021/11/11 00:27:17;;;;;;;39.40;31.52;;;9.20;99.90;;;;;;5051588;28;20440;-59
2021/11/11 00:29:44;;;;;;;39.33;30.27;;;9.20;99.90;;;;;;5052694;28;20055;-59
2021/11/11 00:32:11;;;;;;;38.38;30.42;;;9.30;99.90;;;;;;5034775;28;20076;-59
2021/11/11 00:34:37;;;;;;;39.42;31.63;;;9.20;99.90;;;;;;5051294;28;20043;-49
2021/11/11 00:37:03;;;;;;;36.53;28.30;;;9.20;99.90;;;;;;5052524;28;20037;-50
2021/11/11 00:39:29;;;;;;;42.17;28.42;;;9.20;99.90;;;;;;5050926;28;20388;-53
2021/11/11 00:41:56;;;;;;;40.75;29.88;;;9.20;99.90;;;;;;5034187;28;20053;-53
2021/11/11 00:44:22;;;;;;;38.78;30.42;;;9.20;99.90;;;;;;5052322;28;20074;-51
2021/11/11 00:46:48;;;;;;;39.08;29.98;;;9.10;99.90;;;;;;5050718;28;20076;-53
2021/11/11 00:49:14;;;;;;;41.13;31.48;;;9.20;99.90;;;;;;5052193;28;20040;-51
2021/11/11 00:51:41;;;;;;;41.58;32.78;;;9.10;99.90;;;;;;5050910;28;20041;-49
2021/11/11 00:54:07;;;;;;;40.88;31.27;;;9.10;99.90;;;;;;5050843;28;20496;-49
2021/11/11 00:56:34;;;;;;;45.05;31.73;;;9.10;99.90;;;;;;5034089;28;20445;-50
2021/11/11 00:59:03;;;;;;;39.15;30.33;;;9.10;99.90;;;;;;5051094;28;20399;-48
2021/11/11 01:01:30;;;;;;;39.90;31.33;;;9.10;99.90;;;;;;5065999;28;20048;-54
2021/11/11 01:04:01;;;;;;;40.17;28.88;;;9.10;99.90;;;;;;5050108;28;20041;-58
2021/11/11 01:06:27;;;;;;;40.63;30.80;;;9.10;99.90;;;;;;5051966;28;20053;-60
2021/11/11 01:08:56;;;;;;;39.92;31.08;;;9.10;99.90;;;;;;5049843;28;20044;-60
2021/11/11 01:11:24;;;;;;;42.92;31.00;;;9.00;99.90;;;;;;5050623;28;20033;-60
2021/11/11 01:13:51;;;;;;;46.25;30.48;;;9.10;99.90;;;;;;5033182;28;20036;-60
2021/11/11 01:16:17;;;;;;;39.70;30.92;;;9.00;99.90;;;;;;5048078;28;20041;-60
2021/11/11 01:18:43;;;;;;;45.92;32.58;;;9.10;99.90;;;;;;5033548;28;20130;-59
2021/11/11 01:21:10;;;;;;;44.15;29.17;;;9.00;99.90;;;;;;5051251;28;20037;-60
2021/11/11 01:23:36;;;;;;;40.70;29.80;;;9.10;99.90;;;;;;5049197;28;20116;-60
2021/11/11 01:26:04;;;;;;;36.42;28.85;;;9.10;99.90;;;;;;5049208;28;20400;-60
2021/11/11 01:28:31;;;;;;;41.00;30.85;;;9.00;99.90;;;;;;5049895;28;20584;-59
2021/11/11 01:31:01;;;;;;;41.83;31.15;;;9.00;99.90;;;;;;5014363;28;20037;-60
2021/11/11 01:33:32;;;;;;;41.72;31.35;;;9.00;99.90;;;;;;5051045;28;20052;-50
2021/11/11 01:36:00;;;;;;;44.10;31.35;;;9.00;99.90;;;;;;5051087;28;20056;-48
2021/11/11 01:38:33;;;;;;;44.53;32.00;;;9.00;99.90;;;;;;5033878;28;20076;-58
2021/11/11 01:41:00;;;;;;;44.60;33.08;;;9.00;99.90;;;;;;5062689;28;20076;-59
2021/11/11 01:43:31;;;;;;;44.03;33.80;;;9.00;99.90;;;;;;5049360;28;20060;-59
2021/11/11 01:45:59;;;;;;;45.88;33.10;;;9.00;99.90;;;;;;5049673;28;20051;-58
2021/11/11 01:48:27;;;;;;;46.90;31.65;;;9.00;99.90;;;;;;5033100;28;20060;-59
2021/11/11 01:50:58;;;;;;;45.35;32.72;;;9.00;99.90;;;;;;5016562;28;20063;-52
2021/11/11 01:53:27;;;;;;;40.75;30.98;;;9.00;99.90;;;;;;5033026;28;20462;-57
2021/11/11 01:55:54;;;;;;;45.40;32.63;;;9.00;99.90;;;;;;5032403;28;20040;-58
2021/11/11 01:58:23;;;;;;;45.90;33.55;;;9.00;99.90;;;;;;5049419;28;20080;-50
2021/11/11 02:00:54;;;;;;;44.42;32.55;;;9.00;99.90;;;;;;5048968;28;20044;-59
2021/11/11 02:03:28;;;;;;;43.03;30.95;;;9.00;99.90;;;;;;5049488;28;20056;-60
2021/11/11 02:06:00;;;;;;;;;;;9.00;99.90;;;;;;5049957;28;20468;-59
2021/11/11 02:08:49;;;;;;;41.10;30.10;;;9.00;99.90;;;;;;5041395;28;19990;-60
2021/11/11 02:11:22;;;;;;;44.22;32.25;;;9.00;99.90;;;;;;5024713;28;20423;-50
2021/11/11 02:13:49;;;;;;;42.67;30.42;;;9.00;99.90;;;;;;5056735;28;20044;-59
2021/11/11 02:16:19;;;;;;;45.85;31.73;;;9.00;99.90;;;;;;5042331;28;20188;-59
2021/11/11 02:18:45;;;;;;;45.67;31.35;;;9.00;99.90;;;;;;5034693;28;20124;-59
2021/11/11 02:21:12;;;;;;;44.08;32.47;;;9.00;99.90;;;;;;5040432;28;20067;-60
2021/11/11 02:23:49;;;;;;;40.38;32.20;;;9.00;99.90;;;;;;5024363;28;20049;-50
2021/11/11 02:26:38;;;;;;;42.67;31.58;;;9.00;99.90;;;;;;5048266;28;20071;-53
2021/11/11 02:29:14;;;;;;;43.97;32.00;;;9.10;99.90;;;;;;5040747;28;20048;-60
2021/11/11 02:31:41;;;;;;;47.25;33.38;;;9.00;99.90;;;;;;5023233;28;20044;-60
2021/11/11 02:34:07;;;;;;;47.88;33.22;;;9.00;99.90;;;;;;5026063;28;20105;-59
2021/11/11 02:37:02;;;;;;;48.22;32.72;;;9.00;99.90;;;;;;5045614;28;20048;-60
2021/11/11 02:39:50;;;;;;;46.20;33.05;;;9.00;99.90;;;;;;4990669;28;20141;-60
2021/11/11 02:42:18;;;;;;;52.40;35.40;;;9.00;99.90;;;;;;4981707;28;20069;-60
2021/11/11 02:44:47;;;;;;;48.45;34.03;;;9.00;99.90;;;;;;4982632;28;20047;-60
2021/11/11 02:47:21;;;;;;;47.47;34.95;;;9.00;99.90;;;;;;4972205;28;20046;-60
2021/11/11 02:49:52;;;;;;;48.92;34.22;;;9.10;99.90;;;;;;4972061;28;20047;-60
2021/11/11 02:52:19;;;;;;;42.47;32.03;;;9.00;99.90;;;;;;4971918;28;20046;-60
2021/11/11 02:54:48;;;;;;;47.13;35.53;;;9.00;99.90;;;;;;4955345;28;20035;-59
2021/11/11 02:57:26;;;;;;;45.97;34.83;;;9.10;99.90;;;;;;4955573;28;20049;-60
2021/11/11 02:59:55;;;;;;;43.72;35.65;;;9.00;99.90;;;;;;4987292;28;20053;-60
2021/11/11 03:02:29;;;;;;;48.88;36.58;;;9.00;99.90;;;;;;4987656;28;20054;-49
2021/11/11 03:04:58;;;;;;;47.85;35.50;;;9.00;99.90;;;;;;4955862;28;20093;-60
2021/11/11 03:07:27;;;;;;;45.88;34.92;;;9.00;99.90;;;;;;4971255;28;20200;-60
2021/11/11 03:09:54;;;;;;;46.90;35.50;;;9.00;99.90;;;;;;4986815;28;20595;-60
2021/11/11 03:12:22;;;;;;;51.08;37.72;;;9.00;99.90;;;;;;4987563;28;20050;-60
2021/11/11 03:14:50;;;;;;;55.45;37.75;;;9.00;99.90;;;;;;4954977;28;20042;-60
2021/11/11 03:17:17;;;;;;;51.58;37.72;;;9.00;99.90;;;;;;5000864;28;20174;-60
2021/11/11 03:19:44;;;;;;;48.42;35.92;;;9.00;99.90;;;;;;5047973;28;20470;-60
2021/11/11 03:22:15;;;;;;;53.88;39.97;;;9.00;99.90;;;;;;5048266;28;20056;-60
2021/11/11 03:24:42;;;;;;;51.28;39.88;;;9.00;99.90;;;;;;5047972;28;20641;-60
2021/11/11 03:27:10;;;;;;;47.92;38.50;;;9.00;99.90;;;;;;5048099;28;20040;-60
2021/11/11 03:29:38;;;;;;;58.33;39.60;;;9.00;99.90;;;;;;5030872;28;20063;-60
2021/11/11 03:32:06;;;;;;;58.10;38.15;;;8.90;99.90;;;;;;5047524;28;20041;-60
2021/11/11 03:34:32;;;;;;;52.53;39.97;;;9.00;99.90;;;;;;5046719;28;20056;-59
2021/11/11 03:37:04;;;;;;;54.65;40.33;;;9.00;99.90;;;;;;5030474;28;20047;-59
2021/11/11 03:39:31;;;;;;;57.55;41.58;;;9.00;99.90;;;;;;5047250;28;20134;-60
2021/11/11 03:41:57;;;;;;;58.53;40.00;;;9.00;99.90;;;;;;5047280;28;20080;-60
2021/11/11 03:44:24;;;;;;;61.70;42.10;;;9.00;99.90;;;;;;5047017;28;20053;-60
2021/11/11 03:46:54;;;;;;;56.17;40.78;;;9.00;99.90;;;;;;5047144;28;20036;-60
2021/11/11 03:49:20;;;;;;;52.45;38.83;;;9.00;99.90;;;;;;5047721;28;20055;-60
2021/11/11 03:51:48;;;;;;;55.17;38.03;;;9.00;99.90;;;;;;5048738;28;20041;-59
2021/11/11 03:54:16;;;;;;;48.65;37.67;;;8.90;99.90;;;;;;5030953;28;20128;-60
2021/11/11 03:56:43;;;;;;;52.15;38.15;;;8.90;99.90;;;;;;5060897;28;20077;-60
2021/11/11 03:59:10;;;;;;;54.78;38.83;;;8.90;99.90;;;;;;5047692;28;20122;-60
2021/11/11 04:01:37;;;;;;;51.65;39.20;;;9.00;99.90;;;;;;5047811;28;20049;-59
2021/11/11 04:04:04;;;;;;;63.03;40.85;;;8.90;99.90;;;;;;5047004;28;20056;-60
2021/11/11 04:06:32;;;;;;;53.60;38.45;;;8.90;99.90;;;;;;5047241;28;20041;-60
2021/11/11 04:09:02;;;;;;;53.30;37.85;;;8.90;99.90;;;;;;5030261;28;20045;-59
2021/11/11 04:11:32;;;;;;;51.33;36.30;;;8.90;99.90;;;;;;5012490;28;20118;-60
2021/11/11 04:13:59;;;;;;;45.95;34.95;;;8.90;99.90;;;;;;5014165;28;20044;-59
2021/11/11 04:16:25;;;;;;;54.15;38.05;;;8.90;99.90;;;;;;5050276;28;20130;-50
2021/11/11 04:18:52;;;;;;;51.78;35.90;;;8.90;99.90;;;;;;5047339;28;20102;-49
2021/11/11 04:21:19;;;;;;;53.67;36.28;;;8.90;99.90;;;;;;5047352;28;20037;-51
2021/11/11 04:23:47;;;;;;;51.83;35.63;;;8.90;99.90;;;;;;5048063;28;20538;-52
2021/11/11 04:26:20;;;;;;;50.72;36.70;;;8.90;99.90;;;;;;5030569;28;20049;-53
2021/11/11 04:29:14;;;;;;;49.17;36.83;;;8.90;99.90;;;;;;5046879;28;20091;-59
2021/11/11 04:31:45;;;;;;;49.55;37.30;;;8.90;99.90;;;;;;5047172;28;20484;-52
2021/11/11 04:34:15;;;;;;;49.30;35.38;;;8.90;99.90;;;;;;5046872;28;20080;-53
2021/11/11 04:50:41;;;;;;;52.08;39.20;;;8.90;99.90;;;;;;5001361;28;20762;-51
2021/11/11 05:09:43;;;;;;;65.35;45.55;;;8.70;99.90;;;;;;5037060;28;20353;-53
2021/11/11 05:12:12;;;;;;;75.93;49.72;;;8.80;99.90;;;;;;5008767;28;20046;-52
2021/11/11 05:14:38;;;;;;;71.78;50.55;;;8.70;99.90;;;;;;4974341;28;20060;-51
2021/11/11 05:17:05;;;;;;;74.25;49.00;;;8.70;99.90;;;;;;5036896;28;20596;-59
2021/11/11 05:19:31;;;;;;;69.47;51.13;;;8.70;99.90;;;;;;5042395;28;20285;-60
2021/11/11 05:21:57;;;;;;;70.30;48.78;;;8.70;99.90;;;;;;5049553;28;20411;-60
2021/11/11 05:24:23;;;;;;;82.10;53.53;;;8.70;99.90;;;;;;5060314;28;20064;-60
2021/11/11 05:26:50;;;;;;;80.72;54.13;;;8.70;99.90;;;;;;5032848;28;20048;-61
2021/11/11 05:29:17;;;;;;;78.88;55.60;;;8.70;99.90;;;;;;5033131;28;20055;-60
2021/11/11 05:31:44;;;;;;;82.20;55.72;;;8.70;99.90;;;;;;5033079;28;20098;-59
2021/11/11 05:34:11;;;;;;;88.55;56.00;;;8.70;99.90;;;;;;5050230;28;20036;-60
2021/11/11 05:36:37;;;;;;;73.05;51.33;;;8.70;99.90;;;;;;5051249;28;20041;-61
2021/11/11 05:39:04;;;;;;;74.80;51.78;;;8.70;99.90;;;;;;5016856;28;20083;-54
2021/11/11 05:41:33;;;;;;;78.63;51.35;;;8.70;99.90;;;;;;5048895;28;20053;-54
2021/11/11 05:44:00;;;;;;;79.78;50.63;;;8.70;99.90;;;;;;5049803;28;20480;-52
2021/11/11 05:46:26;;;;;;;69.95;47.88;;;8.70;99.90;;;;;;5032898;28;20250;-51
2021/11/11 05:48:53;;;;;;;79.90;50.22;;;8.70;99.90;;;;;;5049661;28;20476;-51
2021/11/11 05:51:19;;;;;;;80.13;52.70;;;8.70;99.90;;;;;;5032697;28;20056;-51
2021/11/11 05:53:45;;;;;;;79.97;49.45;;;8.70;99.90;;;;;;5047966;28;20110;-53
2021/11/11 05:56:13;;;;;;;76.55;50.22;;;8.60;99.90;;;;;;5049650;28;20041;-60
2021/11/11 05:58:39;;;;;;;75.93;50.20;;;8.70;99.90;;;;;;5051221;28;20045;-61
2021/11/11 06:01:05;;;;;;;82.53;51.17;;;8.70;99.90;;;;;;5050695;28;20124;-60
2021/11/11 06:03:43;;;;;;;67.50;48.15;;;8.70;99.90;;;;;;5049447;28;20542;-60
2021/11/11 06:06:12;;;;;;;66.45;47.72;;;8.70;99.90;;;;;;5033538;28;20041;-60
2021/11/11 06:08:41;;;;;;;69.75;48.00;;;8.70;99.90;;;;;;5049503;28;20072;-61
2021/11/11 06:11:09;;;;;;;74.93;48.92;;;8.70;99.90;;;;;;5031398;28;20080;-60
2021/11/11 06:13:36;;;;;;;73.95;47.38;;;8.70;99.90;;;;;;5065824;28;20036;-60
2021/11/11 06:16:02;;;;;;;77.32;48.97;;;8.70;99.90;;;;;;5049407;28;20473;-59
2021/11/11 06:18:30;;;;;;;67.82;46.35;;;8.70;99.90;;;;;;5040665;28;20048;-60
2021/11/11 06:20:59;;;;;;;80.72;51.50;;;8.70;99.90;;;;;;5048927;28;20502;-60
2021/11/11 06:23:29;;;;;;;;;;;8.70;99.90;;;;;;5049359;28;20066;-60
2021/11/11 06:25:56;;;;;;;68.70;48.33;;;8.70;99.90;;;;;;5038873;28;20277;-60
2021/11/11 06:28:22;;;;;;;71.07;49.55;;;8.70;99.90;;;;;;5049374;28;20110;-60
2021/11/11 06:30:49;;;;;;;70.00;50.88;;;8.80;99.90;;;;;;5031715;28;20049;-60
2021/11/11 06:33:20;;;;;;;81.60;52.80;;;8.70;99.90;;;;;;5048734;28;20045;-52
2021/11/11 06:35:46;;;;;;;81.60;53.50;;;8.80;99.90;;;;;;5047846;28;20052;-52
2021/11/11 06:38:13;;;;;;;81.72;51.47;;;8.70;99.90;;;;;;5049906;28;20464;-51
2021/11/11 06:40:39;;;;;;;77.93;52.42;;;8.80;99.90;;;;;;5049725;28;20041;-51
2021/11/11 06:43:06;;;;;;;79.90;53.67;;;8.80;99.90;;;;;;5049261;28;20757;-49
2021/11/11 06:45:41;;;;;;;78.75;52.72;;;8.80;99.90;;;;;;5049707;28;20500;-52
2021/11/11 06:48:08;;;;;;;75.28;52.42;;;8.80;99.90;;;;;;5048271;28;20041;-51
2021/11/11 06:50:34;;;;;;;82.15;54.78;;;8.90;99.90;;;;;;5049226;28;20037;-50
2021/11/11 06:53:01;;;;;;;74.25;55.70;;;8.90;99.90;;;;;;5048706;28;20101;-50
2021/11/11 06:55:27;;;;;;;81.50;52.78;;;8.90;99.90;;;;;;5049676;28;20053;-53
2021/11/11 06:57:53;;;;;;;77.03;53.00;;;8.80;99.90;;;;;;5049287;28;20124;-48
2021/11/11 07:00:19;;;;;;;70.18;52.05;;;8.80;99.90;;;;;;5030843;28;20044;-50
2021/11/11 07:02:46;;;;;;;78.50;52.50;;;8.90;99.90;;;;;;5047282;28;20049;-52
2021/11/11 07:05:15;;;;;;;71.25;50.78;;;8.90;99.90;;;;;;5028232;28;20512;-49
2021/11/11 07:07:41;;;;;;;73.20;51.55;;;8.90;99.90;;;;;;5049128;28;20048;-51
2021/11/11 07:10:08;;;;;;;69.82;51.17;;;8.90;99.90;;;;;;5049423;28;20052;-48
2021/11/11 07:12:34;;;;;;;70.93;50.33;;;8.90;99.90;;;;;;5047573;28;20045;-58
2021/11/11 07:15:04;;;;;;;67.95;48.75;;;9.00;99.90;;;;;;5047758;28;20384;-59
2021/11/11 07:17:30;;;;;;;72.15;51.13;;;9.00;99.90;;;;;;5049130;28;20056;-59
2021/11/11 07:19:56;;;;;;;70.38;49.75;;;9.00;99.90;;;;;;5048994;28;20044;-60
2021/11/11 07:22:22;;;;;;;63.55;47.08;;;9.00;99.90;;;;;;5015418;28;20040;-60
2021/11/11 07:24:48;;;;;;;64.90;46.50;;;9.00;99.90;;;;;;5030559;28;20358;-59
2021/11/11 07:27:14;;;;;;;74.05;50.63;;;9.10;99.90;;;;;;5031150;28;20072;-59
2021/11/11 07:29:40;;;;;;;70.32;48.83;;;9.10;99.90;;;;;;5048968;28;20045;-59
2021/11/11 07:32:06;;;;;;;68.07;47.22;;;9.10;99.90;;;;;;5048933;28;20048;-60
2021/11/11 07:34:33;;;;;;;67.72;47.38;;;9.10;99.90;;;;;;5047742;28;20045;-59
2021/11/11 07:36:59;;;;;;;67.18;46.15;;;9.20;99.90;;;;;;5046979;28;20480;-60
2021/11/11 07:39:26;;;;;;;66.35;45.92;;;9.20;99.90;;;;;;5049197;28;20444;-60
2021/11/11 07:41:52;;;;;;;67.55;47.72;;;9.20;99.90;;;;;;5030999;28;20044;-60
2021/11/11 07:44:20;;;;;;;64.07;45.25;;;9.20;99.90;;;;;;5031109;28;20080;-60
2021/11/11 07:46:46;;;;;;;55.15;44.58;;;9.20;99.90;;;;;;5044164;28;20040;-60
2021/11/11 07:49:13;;;;;;;61.05;45.45;;;9.20;99.90;;;;;;5048654;28;20070;-60
2021/11/11 07:51:39;;;;;;;59.50;45.97;;;9.20;99.90;;;;;;5046762;28;20044;-60
2021/11/11 07:54:05;;;;;;;71.90;46.50;;;9.20;99.90;;;;;;5048237;28;20044;-59
2021/11/11 07:56:33;;;;;;;61.88;45.97;;;9.20;99.90;;;;;;5046866;28;20053;-61
2021/11/11 07:59:00;;;;;;;68.97;44.50;;;9.30;99.90;;;;;;5048227;28;20045;-59
2021/11/11 08:01:26;;;;;;;62.90;44.33;;;9.20;99.90;;;;;;5048849;28;20085;-60
2021/11/11 08:03:52;;;;;;;58.90;44.33;;;9.30;99.90;;;;;;5047764;28;20056;-60
2021/11/11 08:06:18;;;;;;;66.32;45.42;;;9.30;99.90;;;;;;5046696;28;20052;-60
2021/11/11 08:08:45;;;;;;;65.85;45.05;;;9.30;99.90;;;;;;5046473;28;20357;-60
2021/11/11 08:11:11;;;;;;;63.40;44.30;;;9.20;99.90;;;;;;5043556;28;20037;-60
2021/11/11 08:13:37;;;;;;;62.28;45.50;;;9.30;99.90;;;;;;5053441;28;20055;-60
2021/11/11 08:16:03;;;;;;;60.67;45.00;;;9.20;99.90;;;;;;5058329;28;20051;-59
2021/11/11 08:18:29;;;;;;;62.22;46.20;;;9.20;99.90;;;;;;5049969;28;20123;-60
2021/11/11 08:20:55;;;;;;;64.18;45.65;;;9.20;99.90;;;;;;5046399;28;20132;-60
2021/11/11 08:23:22;;;;;;;65.20;45.83;;;9.20;99.90;;;;;;5047667;28;20080;-60
2021/11/11 08:25:49;;;;;;;62.25;44.63;;;9.20;99.90;;;;;;5048341;28;20041;-60
2021/11/11 08:28:17;;;;;;;62.95;47.25;;;9.20;99.90;;;;;;5048403;28;20485;-60
2021/11/11 08:30:45;;;;;;;69.40;48.60;;;9.20;99.90;;;;;;5046385;28;20124;-50
2021/11/11 08:33:11;;;;;;;63.28;45.53;;;9.30;99.90;;;;;;5047362;28;20045;-49
2021/11/11 08:35:38;;;;;;;65.88;46.60;;;9.30;99.90;;;;;;5052258;28;20037;-50
2021/11/11 08:38:04;;;;;;;65.15;48.00;;;9.30;99.90;;;;;;5052091;28;20127;-52
2021/11/11 08:40:31;;;;;;;60.60;46.47;;;9.30;99.90;;;;;;5052021;28;20132;-53
2021/11/11 08:42:59;;;;;;;65.82;48.33;;;9.30;99.90;;;;;;5051492;28;20048;-50
2021/11/11 08:45:31;;;;;;;66.50;48.03;;;9.30;99.90;;;;;;5050752;28;20063;-52
2021/11/11 08:48:01;;;;;;;61.13;44.95;;;9.30;99.90;;;;;;5050390;28;20111;-51
2021/11/11 08:50:30;;;;;;;60.13;46.28;;;9.40;99.90;;;;;;5052312;28;20080;-52
2021/11/11 08:53:01;;;;;;;67.70;46.92;;;9.30;99.90;;;;;;5051846;28;20079;-53
2021/11/11 08:55:30;;;;;;;74.15;50.47;;;9.40;99.90;;;;;;5050392;28;20106;-49
2021/11/11 08:57:58;;;;;;;64.47;48.42;;;9.40;99.90;;;;;;5049920;28;20132;-47
2021/11/11 09:00:30;;;;;;;67.95;48.85;;;9.40;99.90;;;;;;5046945;28;20056;-49
2021/11/11 09:02:58;;;;;;;73.97;50.10;;;9.40;99.90;;;;;;5052185;28;20401;-58
2021/11/11 09:05:26;;;;;;;60.53;46.15;;;9.50;99.90;;;;;;5051183;28;20127;-59
2021/11/11 09:07:53;;;;;;;67.82;49.10;;;9.40;99.90;;;;;;5033514;28;20048;-58
2021/11/11 09:10:20;;;;;;;65.20;49.40;;;9.40;99.90;;;;;;5050609;28;20119;-59
2021/11/11 09:12:51;;;;;;;72.53;49.00;;;9.40;99.90;;;;;;5050141;28;20043;-58
2021/11/11 09:15:22;;;;;;;72.20;51.05;;;9.50;99.90;;;;;;5033187;28;20408;-54
2021/11/11 09:17:49;;;;;;;73.32;52.80;;;9.50;99.90;;;;;;5051675;28;20319;-51
2021/11/11 09:20:18;;;;;;;75.95;54.00;;;9.60;99.90;;;;;;5049245;28;20083;-53
2021/11/11 09:22:46;;;;;;;72.28;51.33;;;9.60;99.90;;;;;;5050515;28;20037;-51
2021/11/11 09:25:13;;;;;;;71.60;49.40;;;9.70;99.90;;;;;;5052059;28;20041;-51
2021/11/11 09:27:41;;;;;;;67.45;49.75;;;9.70;99.90;;;;;;5051258;28;20041;-49
2021/11/11 09:30:15;;;;;;;67.47;52.80;;;9.80;99.90;;;;;;5051471;28;20037;-53
2021/11/11 09:32:41;;;;;;;68.40;50.28;;;9.90;99.90;;;;;;5048803;28;20060;-53
2021/11/11 09:35:09;;;;;;;68.68;50.47;;;10.00;99.90;;;;;;5050082;28;20488;-50
2021/11/11 09:37:36;;;;;;;63.13;48.10;;;10.00;99.90;;;;;;5050628;28;20044;-51
2021/11/11 09:40:08;;;;;;;68.20;50.03;;;9.90;99.90;;;;;;5049400;28;20063;-53
2021/11/11 09:42:35;;;;;;;73.80;52.63;;;9.90;99.90;;;;;;5044473;28;20060;-53
2021/11/11 09:45:06;;;;;;;66.95;49.67;;;9.90;99.90;;;;;;5049763;28;20052;-50
2021/11/11 09:47:34;;;;;;;82.57;54.10;;;9.80;99.90;;;;;;5046484;28;20459;-52
2021/11/11 09:50:01;;;;;;;73.47;51.85;;;9.80;99.90;;;;;;5049091;28;20049;-49
2021/11/11 09:52:27;;;;;;;79.88;53.88;;;9.80;99.90;;;;;;5051069;28;20048;-53
2021/11/11 10:00:24;;;;;;;85.68;55.50;;;9.80;99.90;;;;;;5049190;28;20107;-53
2021/11/11 10:02:52;;;;;;;74.35;52.47;;;9.80;99.90;;;;;;5032465;28;20057;-51
2021/11/11 10:05:19;;;;;;;78.38;53.65;;;9.90;99.90;;;;;;5050515;28;20053;-49
2021/11/11 10:07:45;;;;;;;77.78;54.80;;;9.90;99.90;;;;;;5050136;28;20040;-51
2021/11/11 10:10:28;;;;;;;80.68;54.63;;;9.80;99.90;;;;;;5050619;28;20037;-50
2021/11/11 10:13:15;;;;;;;73.95;54.92;;;9.90;99.90;;;;;;5050132;28;20045;-51
2021/11/11 10:16:08;;;;;;;76.45;53.40;;;9.90;99.90;;;;;;5049206;28;20136;-49
2021/11/11 10:18:37;;;;;;;75.10;54.60;;;9.90;99.90;;;;;;5048175;28;20045;-51
2021/11/11 10:21:24;;;;;;;77.80;54.58;;;9.90;99.90;;;;;;5050044;28;20116;-50
2021/11/11 10:23:52;;;;;;;72.65;51.97;;;9.90;99.90;;;;;;5047839;28;20181;-53
2021/11/11 10:26:37;;;;;;;77.25;52.95;;;9.90;99.90;;;;;;5050144;28;20060;-52
2021/11/11 10:29:05;;;;;;;76.93;53.92;;;10.00;99.90;;;;;;5048065;28;20662;-54
2021/11/11 10:31:31;;;;;;;66.38;48.47;;;10.00;99.90;;;;;;5044127;28;20368;-48
2021/11/11 10:34:05;;;;;;;72.75;49.00;;;10.00;99.90;;;;;;5049732;28;20041;-46
2021/11/11 10:36:41;;;;;;;70.97;49.88;;;10.10;99.90;;;;;;5045423;28;20052;-49
2021/11/11 10:39:14;;;;;;;66.50;51.00;;;10.20;99.90;;;;;;5061240;28;20045;-48
2021/11/11 10:41:42;;;;;;;68.55;49.20;;;10.20;99.90;;;;;;5049803;28;20059;-52
2021/11/11 10:44:37;;;;;;;68.82;51.67;;;10.20;99.90;;;;;;5048393;28;20566;-48
2021/11/11 10:47:12;;;;;;;69.50;52.33;;;10.20;99.90;;;;;;5047854;28;20123;-50
2021/11/11 10:49:43;;;;;;;78.28;56.03;;;10.10;99.90;;;;;;5048165;28;20068;-48
2021/11/11 10:52:32;;;;;;;73.03;54.22;;;10.10;99.90;;;;;;5048930;28;20502;-48
2021/11/11 10:55:01;;;;;;;74.20;53.58;;;10.10;99.90;;;;;;5049500;28;20057;-58
2021/11/11 10:58:15;;;;;;;76.32;55.05;;;10.20;99.90;;;;;;5049277;28;20123;-49
2021/11/11 11:01:05;;;;;;;73.63;55.83;;;10.20;99.90;;;;;;4974868;28;20065;-48
2021/11/11 11:03:38;;;;;;;73.65;54.72;;;10.20;99.90;;;;;;4963723;28;20046;-51
2021/11/11 11:06:15;;;;;;;72.10;54.78;;;10.20;99.90;;;;;;4977875;28;20046;-52
2021/11/11 11:08:47;;;;;;;73.15;56.85;;;10.30;99.90;;;;;;4977576;28;20142;-50
2021/11/11 11:11:19;;;;;;;77.25;56.85;;;10.30;99.90;;;;;;4979157;28;20054;-52
2021/11/11 11:13:54;;;;;;;69.35;54.92;;;10.30;99.90;;;;;;4979548;28;20090;-52
2021/11/11 11:16:34;;;;;;;77.43;57.63;;;10.30;99.90;;;;;;4962120;28;20539;-52
2021/11/11 11:19:08;;;;;;;81.30;58.85;;;10.30;99.90;;;;;;4976598;28;20542;-51
2021/11/11 11:21:37;;;;;;;83.57;61.05;;;10.20;99.90;;;;;;4958539;28;20043;-51
2021/11/11 11:24:10;;;;;;;76.18;59.33;;;10.30;99.90;;;;;;4964575;28;20039;-50
2021/11/11 11:26:38;;;;;;;86.70;59.20;;;10.30;99.90;;;;;;4968252;28;20154;-53
2021/11/11 11:29:19;;;;;;;81.15;59.03;;;10.30;99.90;;;;;;4961379;28;20125;-51
2021/11/11 11:31:57;;;;;;;79.70;60.97;;;10.40;99.90;;;;;;4963154;28;20121;-58
2021/11/11 11:34:26;;;;;;;95.05;63.33;;;10.40;99.90;;;;;;4978044;28;20046;-58
2021/11/11 11:36:54;;;;;;;93.63;64.10;;;10.40;99.90;;;;;;5005502;28;20459;-58
2021/11/11 11:39:40;;;;;;;86.07;64.03;;;10.50;99.90;;;;;;5048724;28;20045;-57
2021/11/11 11:42:11;;;;;;;84.68;63.50;;;10.50;99.90;;;;;;5048228;28;20091;-58
2021/11/11 11:44:39;;;;;;;89.70;66.23;;;10.40;99.90;;;;;;5047611;28;20103;-58
2021/11/11 11:47:40;;;;;;;84.50;64.47;;;10.50;99.90;;;;;;5047172;28;20052;-58
2021/11/11 11:50:13;;;;;;;91.95;63.70;;;10.50;99.90;;;;;;5046321;28;20484;-57
2021/11/11 11:52:44;;;;;;;82.18;63.90;;;10.50;99.90;;;;;;5046158;28;20175;-58
2021/11/11 11:55:18;;;;;;;81.03;61.10;;;10.50;99.90;;;;;;5030434;28;20053;-58
2021/11/11 12:06:45;;;;;;;81.68;61.83;;;10.80;99.90;;;;;;5046684;28;20078;-58
2021/11/11 12:09:20;;;;;;;74.43;58.35;;;10.80;99.90;;;;;;5046445;28;20044;-58
2021/11/11 12:18:08;;;;;;;74.57;57.80;;;10.80;99.90;;;;;;5030061;28;20075;-58
2021/11/11 12:40:00;;;;;;;68.03;53.13;;;11.10;99.90;;;;;;5046130;28;20052;-48
2021/11/11 12:42:34;;;;;;;71.47;54.90;;;11.00;99.90;;;;;;5046611;28;20052;-49
2021/11/11 12:45:00;;;;;;;69.88;55.03;;;11.10;99.90;;;;;;5046302;28;20052;-48
2021/11/11 12:47:42;;;;;;;65.53;52.30;;;11.00;99.90;;;;;;5048661;28;20051;-49
2021/11/11 12:50:32;;;;;;;72.95;54.53;;;11.00;99.90;;;;;;5045490;28;20496;-49
2021/11/11 12:53:13;;;;;;;71.60;53.90;;;11.00;99.90;;;;;;5003902;28;20493;-50
2021/11/11 12:56:00;;;;;;;73.88;55.42;;;11.00;99.90;;;;;;4997786;28;20100;-50
2021/11/11 12:58:52;;;;;;;71.88;54.85;;;11.00;99.90;;;;;;4989823;28;20065;-48
2021/11/11 13:01:25;;;;;;;73.40;55.40;;;11.00;99.90;;;;;;5006297;28;20584;-50
2021/11/11 13:04:12;;;;;;;69.50;53.60;;;11.00;99.90;;;;;;5005942;28;20061;-50
2021/11/11 13:07:20;;;;;;;71.82;52.72;;;11.00;99.90;;;;;;5005767;28;20125;-50
2021/11/11 13:10:07;;;;;;;72.32;52.92;;;11.10;99.90;;;;;;4939140;29;20573;-48
2021/11/11 13:12:35;;;;;;;72.05;53.17;;;11.00;99.90;;;;;;4945135;29;20194;-49
2021/11/11 13:15:13;;;;;;;70.03;53.53;;;11.00;99.90;;;;;;4931189;29;20458;-47
2021/11/11 13:17:49;;;;;;;69.07;54.50;;;11.00;99.90;;;;;;4947802;29;20043;-49
2021/11/11 13:20:35;;;;;;;75.40;54.92;;;10.90;99.90;;;;;;4949498;28;20047;-48
2021/11/11 13:23:30;;;;;;;75.43;55.30;;;11.00;99.90;;;;;;4950325;29;20062;-49
2021/11/11 13:26:20;;;;;;;75.85;54.75;;;11.00;99.90;;;;;;4942265;29;20044;-49
2021/11/11 15:20:47;;;;;;;83.68;56.25;;;10.70;99.90;;;;;;4977656;28;20070;-49
2021/11/11 16:25:03;;;;;;;74.45;52.00;;;10.50;99.90;;;;;;4989073;28;20046;-48
2021/11/11 16:27:30;;;;;;;72.35;51.63;;;10.50;99.90;;;;;;5001117;28;20591;-57
2021/11/11 16:30:20;;;;;;;71.32;50.95;;;10.50;99.90;;;;;;4989620;28;20048;-56
2021/11/11 16:32:48;;;;;;;73.03;51.35;;;10.50;99.90;;;;;;4940386;28;20054;-50
2021/11/11 16:35:16;;;;;;;69.18;48.63;;;10.40;99.90;;;;;;4912488;29;20122;-52
2021/11/11 16:37:44;;;;;;;73.70;48.58;;;10.40;99.90;;;;;;4935312;29;20043;-49
2021/11/11 16:40:13;;;;;;;65.82;49.15;;;10.40;99.90;;;;;;4938614;29;20130;-48
2021/11/11 16:42:39;;;;;;;67.93;48.13;;;10.40;99.90;;;;;;4938653;29;20051;-57
2021/11/11 16:45:06;;;;;;;66.85;47.70;;;10.40;99.90;;;;;;4935414;28;20047;-57
2021/11/11 16:47:32;;;;;;;62.40;47.25;;;10.40;99.90;;;;;;4940742;28;20047;-50
2021/11/11 16:49:58;;;;;;;73.97;47.92;;;10.40;99.90;;;;;;4937529;28;20055;-58
2021/11/11 16:52:25;;;;;;;70.82;48.05;;;10.40;99.90;;;;;;4899565;29;20052;-52
2021/11/11 16:54:52;;;;;;;63.22;45.58;;;10.40;99.90;;;;;;4916270;29;20052;-51